MHLC/LCE METAR and TAF weather

Enter ICAO airport designator
Station Type Date Time Source
MHLC METAR 2020/07/05 22:00 UTC NOAA

MHLC 052200Z 05016KT 9999 4000SW DU SCT025TCU 31/26 Q1010 A2983


Station Type Date Time Source
MHLC Decoded METAR 2020/07/05 22:00 UTC NOAA

La Ceiba Airport , Honduras (MHLC) 15-44N 086-52W 26M
Jul 05, 2020 - 06:00 PM EDT / 2020.07.05 2200 UTC
Wind: from the NE (050 degrees) at 18 MPH (16 KT):0
Visibility: greater than 7 mile(s):0
Sky conditions: partly cloudy
Weather: widespread dust; Towering cumulus clouds observed
Temperature: 87 F (31 C)
Heat index: 99.7 F (37.6 C):1
Dew Point: 78 F (26 C)
Relative Humidity: 74%
Pressure (altimeter): 29.83 in. Hg (1010 hPa)
ob: MHLC 052200Z 05016KT 9999 4000SW DU SCT025TCU 31/26 Q1010 A2983
cycle: 22

Station Type Date Time Source
MHLC TAF 2020/07/05 18:08 UTC NOAA

TAF MHLC 051600Z 0518/0618 06015KT 9999 SCT028TCU TX32/0519Z TN22/0612Z PROB30
TEMPO 0522/0602 8000 VCSH FEW026CB SCT028TCU SCT080
BECMG 0602/0604 15003KT 9999 NSW SCT024 SCT090

Example: see airport list